This is the latest recevied weather packets stored in our database for station/object W2DRT. If no packets are shown the sender has not sent any weather packets the latest 10 day(s).
| Time | Temp. | Humidity | Pressure | Rain* | Wind** | Luminosity | Snow |
|---|---|---|---|---|---|---|---|
| 1777347944 | 8.89° C | 62% | 1025.5 hPa | - | - | - | - |
| 1777347343 | 8.89° C | 61% | 1025.5 hPa | - | - | - | - |
| 1777346743 | 9.44° C | 60% | 1025.5 hPa | - | - | - | - |
| 1777346142 | 9.44° C | 60% | 1025.5 hPa | - | - | - | - |
| 1777345536 | 9.44° C | 58% | 1025.8 hPa | - | - | - | - |
| 1777344935 | 10° C | 57% | 1025.8 hPa | - | - | - | - |
| 1777344334 | 10° C | 57% | 1026.1 hPa | - | - | - | - |
| 1777343734 | 10° C | 56% | 1026.1 hPa | - | - | - | - |
| 1777343130 | 10.56° C | 55% | 1026.1 hPa | - | - | - | - |
| 1777342529 | 10.56° C | 55% | 1026.1 hPa | - | - | - | - |
| 1777341929 | 11.11° C | 55% | 1026.1 hPa | - | - | - | - |
| 1777341327 | 11.11° C | 54% | 1026.1 hPa | - | - | - | - |
| 1777340721 | 11.67° C | 53% | 1026.1 hPa | - | - | - | - |
| 1777340117 | 11.67° C | 50% | 1026.1 hPa | - | - | - | - |
| 1777339512 | 12.22° C | 49% | 1025.8 hPa | - | - | - | - |
| 1777338907 | 12.22° C | 48% | 1025.5 hPa | - | - | - | - |
| 1777336496 | 13.89° C | 44% | 1025.1 hPa | - | - | - | - |
| 1777334685 | 15.56° C | 40% | 1025.1 hPa | - | - | - | - |
| 1777328064 | 24.44° C | 23% | 1023.8 hPa | - | - | - | - |
| 1777311212 | 21.11° C | 40% | 1024.8 hPa | - | - | - | - |
| 1777310008 | 20.56° C | 44% | 1024.8 hPa | - | - | - | - |
| 1777306989 | 18.89° C | 44% | 1025.1 hPa | - | - | - | - |
| 1777306389 | 18.33° C | 48% | 1025.1 hPa | - | - | - | - |
| 1777305785 | 18.33° C | 46% | 1025.1 hPa | - | - | - | - |
| 1777305182 | 17.78° C | 47% | 1025.5 hPa | - | - | - | - |
* Rain since midnight (hover to see other rain measurements)
** Current wind speed in m/s (hover to see current wind gust speed)